Latest Weather Observations for Canterbury

IDN60801

Issued at 9:32 pm EST Sunday 26 May 2024 (issued every 10 minutes, with the page automatically refreshed every 10 minutes)

About weather observations | Map of weather stations | Latest weather observations for NSW | Other Formats
Station Details ID: 066194 Name: CANTERBURY RACECOURSE AWS Lat: -33.91 Lon: 151.11 Height: 3.0 m
Data from the previous 72 hours. | See also: Recent months at Canterbury
Date/Time
EST
Temp
°C
App
Temp
°C
Dew
Point
°C
Rel
Hum
%
Delta-T
°C
Wind Press
QNH
hPa
Press
MSL
hPa
Rain since
9am
mm
Dir  Spd
km/h
Gust
km/h
Spd
kts
Gust
kts
26/09:30pm 10.2 10.3 10.1 99 0.1 CALM 0 0 0 0 - - 0.0
26/09:15pm 10.2 10.3 10.1 99 0.1 CALM 0 0 0 0 - - 0.0
26/09:09pm 10.4 10.5 10.2 99 0.1 CALM 0 0 0 0 - - 0.0
26/09:00pm 10.5 10.6 10.3 99 0.1 CALM 0 0 0 0 - - 0.0
26/08:53pm 10.4 10.5 10.2 99 0.1 CALM 0 0 0 0 - - 0.0
26/08:42pm 10.8 11.0 10.6 99 0.1 CALM 0 0 0 0 - - 0.0
26/08:33pm 10.4 10.5 10.2 99 0.1 CALM 0 0 0 0 - - 0.0
26/08:30pm 10.7 10.9 10.5 99 0.1 CALM 0 0 0 0 - - 0.0
26/08:27pm 10.9 11.1 10.7 99 0.1 CALM 0 0 0 0 - - 0.0
26/08:25pm 10.7 10.9 10.5 99 0.1 CALM 0 0 0 0 - - 0.0
26/08:11pm 10.9 11.1 10.7 99 0.1 CALM 0 0 0 0 - - 0.0
26/08:00pm 11.2 11.5 11.0 99 0.1 CALM 0 0 0 0 - - 0.0
26/07:40pm 11.6 12.0 11.4 99 0.1 CALM 0 0 0 0 - - 0.0
26/07:30pm 11.8 12.3 11.5 98 0.2 CALM 0 0 0 0 - - 0.0
26/07:18pm 11.5 11.8 10.9 96 0.3 CALM 0 0 0 0 - - 0.0
26/07:00pm 12.0 12.4 11.4 96 0.3 CALM 0 0 0 0 - - 0.0
26/06:30pm 12.6 13.1 11.5 93 0.6 CALM 0 0 0 0 - - 0.0
26/06:00pm 13.8 14.3 11.7 87 1.1 CALM 0 0 0 0 - - 0.0
26/05:30pm 14.9 14.9 11.3 79 1.9 SE 2 6 1 3 - - 0.0
26/05:00pm 16.7 15.3 12.3 75 2.4 SE 11 15 6 8 - - 0.0
26/04:30pm 17.9 16.0 11.9 68 3.3 SE 13 17 7 9 - - 0.0
26/04:00pm 18.8 17.2 11.6 63 4.0 SE 11 17 6 9 - - 0.0
26/03:30pm 19.8 17.6 10.8 56 4.9 SE 13 15 7 8 - - 0.0
26/03:00pm 20.5 19.5 10.3 52 5.5 SE 6 11 3 6 - - 0.0
26/02:30pm 21.2 18.9 7.4 41 7.1 S 9 15 5 8 - - 0.0
26/02:00pm 20.9 18.5 7.2 41 7.0 W 9 19 5 10 - - 0.0
26/01:30pm 20.7 19.0 8.4 45 6.4 SW 7 15 4 8 - - 0.0
26/01:00pm 20.4 18.3 8.4 46 6.3 W 9 15 5 8 - - 0.0
26/12:30pm 19.6 17.6 8.6 49 5.7 SW 9 17 5 9 - - 0.0
26/12:00pm 19.6 17.9 10.0 54 5.1 NW 9 15 5 8 - - 0.0
26/11:30am 18.9 17.8 10.5 58 4.5 WNW 7 13 4 7 - - 0.0
26/11:00am 17.8 16.4 10.9 64 3.7 NW 9 13 5 7 - - 0.0
26/10:30am 16.7 15.4 11.2 70 3.0 NW 9 15 5 8 - - 0.0
26/10:00am 15.7 14.4 11.3 75 2.4 WNW 9 17 5 9 - - 0.0
26/09:30am 14.6 13.4 11.6 82 1.6 W 9 15 5 8 - - 0.0
26/09:00am 13.7 13.5 13.5 99 0.1 NW 7 11 4 6 - - 0.0
26/08:30am 12.2 11.7 12.2 100 0.0 NW 6 11 3 6 - - 0.0
26/08:06am 10.7 10.2 10.7 100 0.0 ENE 4 9 2 5 - - 0.0
26/08:00am 10.5 10.3 10.5 100 0.0 ESE 2 6 1 3 - - 0.0
26/07:48am 9.8 9.8 9.8 100 0.0 CALM 0 0 0 0 - - 0.0
26/07:30am 7.9 7.4 7.9 100 0.0 CALM 0 0 0 0 - - 0.0
26/07:00am 7.2 6.6 7.2 100 0.0 CALM 0 0 0 0 - - 0.0
26/06:30am 8.0 7.5 8.0 100 0.0 CALM 0 0 0 0 - - 0.0
26/06:01am 8.5 8.2 8.5 100 0.0 CALM 0 0 0 0 - - 0.0
26/06:00am 8.6 8.3 8.6 100 0.0 CALM 0 0 0 0 - - 0.0
26/05:57am 8.7 8.4 8.7 100 0.0 CALM 0 0 0 0 - - 0.0
26/05:30am 8.4 8.0 8.4 100 0.0 CALM 0 0 0 0 - - 0.0
26/05:19am 8.5 8.2 8.5 100 0.0 CALM 0 0 0 0 - - 0.0
26/05:10am 8.9 8.7 8.9 100 0.0 CALM 0 0 0 0 - - 0.0
26/05:00am 8.7 8.4 8.7 100 0.0 CALM 0 0 0 0 - - 0.0
26/04:46am 8.8 8.5 8.8 100 0.0 CALM 0 0 0 0 - - 0.0
26/04:39am 9.0 8.8 9.0 100 0.0 CALM 0 0 0 0 - - 0.0
26/04:30am 8.5 8.2 8.5 100 0.0 CALM 0 0 0 0 - - 0.0
26/04:00am 8.9 8.7 8.9 100 0.0 CALM 0 0 0 0 - - 0.0
26/03:59am 9.0 8.8 9.0 100 0.0 CALM 0 0 0 0 - - 0.0
26/03:41am 9.1 8.9 9.1 100 0.0 CALM 0 0 0 0 - - 0.0
26/03:30am 9.0 8.8 9.0 100 0.0 CALM 0 0 0 0 - - 0.0
26/03:26am 8.8 8.5 8.8 100 0.0 CALM 0 0 0 0 - - 0.0
26/03:22am 8.9 8.7 8.9 100 0.0 CALM 0 0 0 0 - - 0.0
26/03:00am 9.4 9.3 9.4 100 0.0 CALM 0 0 0 0 - - 0.0
26/02:56am 9.3 9.2 9.3 100 0.0 CALM 0 0 0 0 - - 0.0
26/02:32am 9.6 9.5 9.6 100 0.0 CALM 0 0 0 0 - - 0.0
26/02:30am 9.6 9.5 9.6 100 0.0 CALM 0 0 0 0 - - 0.0
26/02:00am 10.3 10.4 10.3 100 0.0 CALM 0 0 0 0 - - 0.0
26/01:59am 10.3 10.4 10.3 100 0.0 CALM 0 0 0 0 - - 0.0
26/01:42am 9.7 9.7 9.7 100 0.0 CALM 0 0 0 0 - - 0.0
26/01:30am 9.7 9.7 9.7 100 0.0 CALM 0 0 0 0 - - 0.0
26/01:29am 9.7 9.7 9.7 100 0.0 CALM 0 0 0 0 - - 0.0
26/01:05am 9.7 9.7 9.7 100 0.0 CALM 0 0 0 0 - - 0.0
26/01:00am 9.4 9.3 9.3 99 0.0 CALM 0 0 0 0 - - 0.0
26/12:36am 9.9 9.9 9.8 99 0.1 CALM 0 0 0 0 - - 0.0
26/12:30am 10.1 10.2 10.0 99 0.1 CALM 0 0 0 0 - - 0.0
26/12:27am 10.0 10.0 9.9 99 0.1 CALM 0 0 0 0 - - 0.0
26/12:25am 10.2 10.3 10.1 99 0.1 CALM 0 0 0 0 - - 0.0
26/12:00am 10.6 10.8 10.6 100 0.0 CALM 0 0 0 0 - - 0.0
 
Date/Time
EST
Temp
°C
App
Temp
°C
Dew
Point
°C
Rel
Hum
%
Delta-T
°C
Wind Press
QNH
hPa
Press
MSL
hPa
Rain since
9am
mm
Dir  Spd
km/h
Gust
km/h
Spd
kts
Gust
kts
25/11:52pm 9.9 9.9 9.8 99 0.1 CALM 0 0 0 0 - - 0.0
25/11:30pm 10.8 11.0 10.6 99 0.1 CALM 0 0 0 0 - - 0.0
25/11:18pm 10.7 10.9 10.5 99 0.1 CALM 0 0 0 0 - - 0.0
25/11:00pm 10.9 11.1 10.7 99 0.1 CALM 0 0 0 0 - - 0.0
25/10:45pm 10.9 11.1 10.7 99 0.1 CALM 0 0 0 0 - - 0.0
25/10:44pm 11.0 11.3 10.8 99 0.1 CALM 0 0 0 0 - - 0.0
25/10:30pm 11.1 11.4 10.9 99 0.1 CALM 0 0 0 0 - - 0.0
25/10:23pm 11.0 11.3 10.8 99 0.1 CALM 0 0 0 0 - - 0.0
25/10:00pm 11.1 11.4 10.9 99 0.1 CALM 0 0 0 0 - - 0.0
25/09:57pm 11.1 11.4 10.9 99 0.1 CALM 0 0 0 0 - - 0.0
25/09:44pm 11.2 11.5 11.0 99 0.1 CALM 0 0 0 0 - - 0.0
25/09:37pm 10.9 11.1 10.7 99 0.1 CALM 0 0 0 0 - - 0.0
25/09:30pm 11.3 11.7 11.1 99 0.1 CALM 0 0 0 0 - - 0.0
25/09:24pm 11.2 11.5 11.0 99 0.1 CALM 0 0 0 0 - - 0.0
25/09:00pm 11.2 11.5 11.0 99 0.1 CALM 0 0 0 0 - - 0.0
25/08:30pm 11.7 12.2 11.5 99 0.1 CALM 0 0 0 0 - - 0.0
25/08:00pm 11.5 11.9 11.3 99 0.1 CALM 0 0 0 0 - - 0.0
25/07:42pm 11.8 12.3 11.6 99 0.1 CALM 0 0 0 0 - - 0.0
25/07:30pm 11.6 12.0 11.3 98 0.2 CALM 0 0 0 0 - - 0.0
25/07:22pm 11.0 11.2 10.5 97 0.3 CALM 0 0 0 0 - - 0.0
25/07:00pm 12.0 12.4 11.4 96 0.3 CALM 0 0 0 0 - - 0.0
25/06:30pm 12.4 12.9 11.5 94 0.5 CALM 0 0 0 0 - - 0.0
25/06:00pm 13.1 13.6 11.7 91 0.7 CALM 0 0 0 0 - - 0.0
25/05:30pm 13.9 14.3 11.4 85 1.3 CALM 0 0 0 0 - - 0.0
25/05:00pm 15.0 15.6 11.8 81 1.7 CALM 0 0 0 0 - - 0.0
25/04:30pm 16.4 16.3 12.0 75 2.4 ESE 4 9 2 5 - - 0.0
25/04:00pm 17.8 18.7 12.9 73 2.7 CALM 0 0 0 0 - - 0.0
25/03:30pm 18.1 18.3 10.7 62 4.0 CALM 0 0 0 0 - - 0.0
25/03:00pm 18.4 18.7 10.8 61 4.1 CALM 0 0 0 0 - - 0.0
25/02:30pm 18.3 18.5 10.4 60 4.2 CALM 0 0 0 0 - - 0.0
25/02:00pm 18.7 18.6 10.8 60 4.3 NW 2 7 1 4 - - 0.0
25/01:30pm 18.5 17.6 10.8 61 4.2 N 6 9 3 5 - - 0.0
25/01:00pm 18.3 17.3 10.9 62 4.0 WNW 7 15 4 8 - - 0.0
25/12:30pm 17.3 15.8 10.4 64 3.7 NW 9 15 5 8 - - 0.0
25/12:00pm 17.1 15.9 10.2 64 3.7 NW 7 17 4 9 - - 0.0
25/11:30am 16.9 15.9 10.3 65 3.5 WNW 6 13 3 7 - - 0.0
25/11:00am 16.9 16.1 11.0 68 3.2 W 6 9 3 5 - - 0.0
25/10:30am 15.9 14.8 10.7 71 2.8 W 7 11 4 6 - - 0.0
25/10:00am 14.7 13.0 9.7 72 2.6 WSW 9 15 5 8 - - 0.0
25/09:30am 14.6 13.5 10.8 78 2.0 W 7 13 4 7 - - 0.0
25/09:00am 12.9 12.4 12.7 99 0.1 W 7 13 4 7 - - 0.0
25/08:30am 11.0 10.2 11.0 100 0.0 NW 6 9 3 5 - - 0.0
25/08:00am 9.4 8.9 9.4 100 0.0 NW 2 7 1 4 - - 0.0
25/07:37am 8.8 7.4 8.8 100 0.0 NNW 6 7 3 4 - - 0.0
25/07:30am 8.5 7.0 8.5 100 0.0 NNW 6 9 3 5 - - 0.0
25/07:19am 7.4 6.8 7.4 100 0.0 CALM 0 0 0 0 - - 0.0
25/07:00am 7.6 7.0 7.6 100 0.0 CALM 0 0 0 0 - - 0.0
25/06:59am 7.9 7.4 7.9 100 0.0 CALM 0 0 0 0 - - 0.0
25/06:47am 7.8 7.3 7.8 100 0.0 CALM 0 0 0 0 - - 0.0
25/06:38am 6.9 6.2 6.9 100 0.0 CALM 0 0 0 0 - - 0.0
25/06:30am 8.1 7.7 8.1 100 0.0 CALM 0 0 0 0 - - 0.0
25/06:14am 7.6 7.0 7.6 100 0.0 CALM 0 0 0 0 - - 0.0
25/06:00am 8.5 8.2 8.5 100 0.0 CALM 0 0 0 0 - - 0.0
25/05:30am 8.6 8.3 8.6 100 0.0 CALM 0 0 0 0 - - 0.0
25/05:00am 9.1 8.9 9.1 100 0.0 CALM 0 7 0 4 - - 0.0
25/04:30am 8.6 7.9 8.6 100 0.0 NW 2 7 1 4 - - 0.0
25/04:18am 9.0 8.4 9.0 100 0.0 NW 2 7 1 4 - - 0.0
25/04:07am 8.8 8.5 8.8 100 0.0 CALM 0 0 0 0 - - 0.0
25/04:00am 8.8 8.5 8.8 100 0.0 CALM 0 0 0 0 - - 0.0
25/03:47am 8.8 8.5 8.8 100 0.0 CALM 0 0 0 0 - - 0.0
25/03:30am 9.0 8.8 9.0 100 0.0 CALM 0 0 0 0 - - 0.0
25/03:15am 9.0 8.8 9.0 100 0.0 CALM 0 0 0 0 - - 0.0
25/03:07am 8.6 8.3 8.6 100 0.0 CALM 0 0 0 0 - - 0.0
25/03:00am 9.3 9.2 9.3 100 0.0 CALM 0 0 0 0 - - 0.0
25/02:59am 9.3 9.2 9.3 100 0.0 CALM 0 0 0 0 - - 0.0
25/02:49am 8.9 8.7 8.9 100 0.0 CALM 0 0 0 0 - - 0.0
25/02:30am 9.3 9.2 9.3 100 0.0 CALM 0 6 0 3 - - 0.0
25/02:25am 9.5 9.4 9.5 100 0.0 CALM 0 6 0 3 - - 0.0
25/02:09am 9.1 8.9 9.1 100 0.0 CALM 0 0 0 0 - - 0.0
25/02:00am 9.5 9.4 9.5 100 0.0 CALM 0 0 0 0 - - 0.0
25/01:51am 9.9 9.9 9.9 100 0.0 CALM 0 6 0 3 - - 0.0
25/01:36am 10.1 9.4 10.1 100 0.0 NW 4 9 2 5 - - 0.0
25/01:30am 9.7 9.7 9.7 100 0.0 CALM 0 0 0 0 - - 0.0
25/01:16am 10.1 10.2 10.1 100 0.0 CALM 0 0 0 0 - - 0.0
25/01:07am 10.2 10.3 10.2 100 0.0 CALM 0 0 0 0 - - 0.0
25/01:00am 10.2 10.3 10.2 100 0.0 CALM 0 0 0 0 - - 0.0
25/12:53am 10.0 10.1 10.0 100 0.0 CALM 0 0 0 0 - - 0.0
25/12:41am 9.4 9.3 9.4 100 0.0 CALM 0 0 0 0 - - 0.0
25/12:35am 9.9 9.9 9.9 100 0.0 CALM 0 0 0 0 - - 0.0
25/12:30am 9.9 9.9 9.9 100 0.0 CALM 0 0 0 0 - - 0.0
25/12:00am 10.1 9.4 10.1 100 0.0 NW 4 7 2 4 - - 0.0
 
Date/Time
EST
Temp
°C
App
Temp
°C
Dew
Point
°C
Rel
Hum
%
Delta-T
°C
Wind Press
QNH
hPa
Press
MSL
hPa
Rain since
9am
mm
Dir  Spd
km/h
Gust
km/h
Spd
kts
Gust
kts
24/11:30pm 10.1 9.8 10.0 99 0.1 NNW 2 7 1 4 - - 0.0
24/11:14pm 9.6 9.5 9.5 99 0.0 CALM 0 0 0 0 - - 0.0
24/11:00pm 10.2 10.3 10.1 99 0.1 CALM 0 0 0 0 - - 0.0
24/10:56pm 10.1 10.2 10.0 99 0.1 CALM 0 0 0 0 - - 0.0
24/10:37pm 10.2 10.3 10.1 99 0.1 CALM 0 0 0 0 - - 0.0
24/10:34pm 10.4 10.5 10.2 99 0.1 CALM 0 0 0 0 - - 0.0
24/10:31pm 10.4 10.5 10.2 99 0.1 CALM 0 0 0 0 - - 0.0
24/10:30pm 10.5 10.6 10.3 99 0.1 CALM 0 0 0 0 - - 0.0
24/10:12pm 10.6 10.8 10.4 99 0.1 CALM 0 0 0 0 - - 0.0
24/10:00pm 10.5 10.3 10.3 99 0.1 W 2 6 1 3 - - 0.0
24/09:49pm 10.6 10.8 10.4 99 0.1 CALM 0 7 0 4 - - 0.0
24/09:30pm 10.5 10.6 10.3 99 0.1 CALM 0 0 0 0 - - 0.0
24/09:13pm 10.7 10.5 10.5 99 0.1 SSE 2 7 1 4 - - 0.0
24/09:00pm 11.0 11.3 10.8 99 0.1 CALM 0 0 0 0 - - 0.0
24/08:30pm 11.7 12.1 11.4 98 0.2 CALM 0 0 0 0 - - 0.0
24/08:00pm 12.0 12.2 11.7 98 0.2 SSE 2 6 1 3 - - 0.0
24/07:30pm 12.2 12.6 11.4 95 0.4 CALM 0 0 0 0 - - 0.0
24/07:00pm 12.8 13.3 11.7 93 0.6 CALM 0 0 0 0 - - 0.0
24/06:30pm 13.0 13.4 11.1 88 1.0 CALM 0 0 0 0 - - 0.0
24/06:00pm 15.2 14.7 12.2 82 1.6 SSE 6 9 3 5 - - 0.0
24/05:30pm 16.0 15.0 12.4 79 2.0 SSE 9 11 5 6 - - 0.0
24/05:00pm 16.4 15.4 12.4 77 2.2 SSE 9 13 5 7 - - 0.0
24/04:30pm 17.0 15.3 12.3 74 2.6 SSE 13 20 7 11 - - 0.0
24/04:00pm 17.4 15.4 12.7 74 2.6 SE 15 22 8 12 - - 0.0
24/03:30pm 17.8 15.7 12.5 71 2.9 SE 15 22 8 12 - - 0.0
24/03:00pm 18.5 15.9 10.8 61 4.2 SE 15 22 8 12 - - 0.0
24/02:30pm 19.0 17.3 11.3 61 4.2 SE 11 19 6 10 - - 0.0
24/02:00pm 19.3 17.3 11.6 61 4.2 ESE 13 19 7 10 - - 0.0
24/01:30pm 19.1 17.6 11.9 63 4.0 ESE 11 17 6 9 - - 0.0
24/01:00pm 19.2 17.8 12.2 64 3.9 ESE 11 19 6 10 - - 0.0
24/12:30pm 20.5 20.5 11.2 55 5.1 NNE 2 15 1 8 - - 0.0
24/12:00pm 18.9 17.7 9.7 55 4.9 SSE 6 11 3 6 - - 0.0
24/11:30am 18.4 17.3 10.0 58 4.5 SSW 6 11 3 6 - - 0.0
24/11:00am 17.0 15.6 9.4 61 4.0 WSW 7 13 4 7 - - 0.0
24/10:30am 16.8 15.6 10.2 65 3.5 WSW 7 13 4 7 - - 0.0
24/10:00am 15.5 14.1 9.4 67 3.1 WNW 7 13 4 7 - - 0.0
24/09:30am 14.4 12.7 9.8 74 2.4 WNW 9 15 5 8 - - 0.0
24/09:00am 13.1 11.4 9.7 80 1.7 W 9 15 5 8 - - 0.0
24/08:30am 11.5 10.1 11.0 97 0.3 W 9 19 5 10 - - 0.0
24/08:00am 10.5 9.4 10.5 100 0.0 WNW 7 9 4 5 - - 0.0
24/07:30am 8.9 7.5 8.9 100 0.0 NW 6 9 3 5 - - 0.0
24/07:00am 7.9 6.3 7.9 100 0.0 NNW 6 9 3 5 - - 0.0
24/06:36am 7.5 6.5 7.5 100 0.0 NNW 2 6 1 3 - - 0.0
24/06:30am 7.7 6.4 7.7 100 0.0 NNW 4 6 2 3 - - 0.0
24/06:13am 6.9 5.4 6.9 100 0.0 NNW 4 6 2 3 - - 0.0
24/06:09am 7.2 5.8 7.2 100 0.0 NNW 4 7 2 4 - - 0.0
24/06:00am 7.4 6.8 7.4 100 0.0 CALM 0 7 0 4 - - 0.0
24/05:56am 7.4 6.8 7.4 100 0.0 CALM 0 0 0 0 - - 0.0
24/05:46am 6.9 5.8 6.9 100 0.0 SE 2 6 1 3 - - 0.0
24/05:42am 6.8 5.7 6.8 100 0.0 SE 2 7 1 4 - - 0.0
24/05:30am 7.3 6.7 7.3 100 0.0 CALM 0 0 0 0 - - 0.0
24/05:00am 7.4 6.8 7.4 100 0.0 CALM 0 0 0 0 - - 0.0
24/04:30am 7.2 6.6 7.2 100 0.0 CALM 0 0 0 0 - - 0.0
24/04:00am 7.4 6.8 7.4 100 0.0 CALM 0 0 0 0 - - 0.0
24/03:30am 7.4 6.8 7.4 100 0.0 CALM 0 0 0 0 - - 0.0
24/03:00am 7.8 7.3 7.8 100 0.0 CALM 0 0 0 0 - - 0.0
24/02:30am 7.9 7.4 7.9 100 0.0 CALM 0 0 0 0 - - 0.0
24/02:00am 8.2 7.8 8.2 100 0.0 CALM 0 0 0 0 - - 0.0
24/01:48am 7.9 7.4 7.9 100 0.0 CALM 0 0 0 0 - - 0.0
24/01:35am 7.6 7.0 7.6 100 0.0 CALM 0 0 0 0 - - 0.0
24/01:30am 7.5 6.9 7.4 99 0.0 CALM 0 0 0 0 - - 0.0
24/01:29am 7.5 6.9 7.4 99 0.0 CALM 0 0 0 0 - - 0.0
24/01:04am 8.2 7.8 8.2 100 0.0 CALM 0 0 0 0 - - 0.0
24/01:00am 8.0 7.5 7.9 99 0.0 CALM 0 0 0 0 - - 0.0
24/12:44am 7.8 7.3 7.7 99 0.0 CALM 0 0 0 0 - - 0.0
24/12:30am 8.2 7.8 8.1 99 0.0 CALM 0 0 0 0 - - 0.0
24/12:09am 8.2 7.8 8.1 99 0.0 CALM 0 0 0 0 - - 0.0
24/12:00am 8.0 7.5 7.9 99 0.0 CALM 0 0 0 0 - - 0.0
 
Date/Time
EST
Temp
°C
App
Temp
°C
Dew
Point
°C
Rel
Hum
%
Delta-T
°C
Wind Press
QNH
hPa
Press
MSL
hPa
Rain since
9am
mm
Dir  Spd
km/h
Gust
km/h
Spd
kts
Gust
kts
23/11:57pm 8.4 8.0 8.3 99 0.0 CALM 0 0 0 0 - - 0.0
23/11:54pm 8.1 7.6 8.0 99 0.0 CALM 0 0 0 0 - - 0.0
23/11:30pm 8.5 8.1 8.4 99 0.0 CALM 0 0 0 0 - - 0.0
23/11:00pm 8.7 8.4 8.6 99 0.0 CALM 0 0 0 0 - - 0.0
23/10:30pm 8.8 8.5 8.7 99 0.0 CALM 0 0 0 0 - - 0.0
23/10:18pm 8.7 8.4 8.6 99 0.0 CALM 0 0 0 0 - - 0.0
23/10:00pm 9.0 8.8 8.9 99 0.0 CALM 0 0 0 0 - - 0.0

Other formats

Comma delimited format used in spreadsheet applications
http://www.bom.gov.au/fwo/IDN60801/IDN60801.94766.axf

JavaScript Object Notation format (JSON) in row-major order
http://www.bom.gov.au/fwo/IDN60801/IDN60801.94766.json

Data quality

Most of these data are generated automatically and are frequently updated. Quality checks on data are not normally performed. It is possible for incorrect values to appear. Refer to information at About Latest Weather Observations and please check the disclaimer before using these data.